sensor_id;sensor_type;location;lat;lon;timestamp;P1;durP1;ratioP1;P2;durP2;ratioP2
2824;SDS011;1420;51.324;12.344;2023-04-25T00:01:09;369.43;;;349.58;;
2824;SDS011;1420;51.324;12.344;2023-04-25T00:03:36;255.00;;;240.53;;
2824;SDS011;1420;51.324;12.344;2023-04-25T00:06:03;325.47;;;306.43;;
2824;SDS011;1420;51.324;12.344;2023-04-25T00:08:31;333.40;;;314.95;;
2824;SDS011;1420;51.324;12.344;2023-04-25T00:11:00;280.15;;;264.70;;
2824;SDS011;1420;51.324;12.344;2023-04-25T00:13:27;394.65;;;372.03;;
2824;SDS011;1420;51.324;12.344;2023-04-25T00:15:54;345.35;;;326.25;;
2824;SDS011;1420;51.324;12.344;2023-04-25T00:18:21;319.75;;;302.63;;
2824;SDS011;1420;51.324;12.344;2023-04-25T00:20:48;352.82;;;332.67;;
2824;SDS011;1420;51.324;12.344;2023-04-25T00:23:16;346.15;;;327.18;;
2824;SDS011;1420;51.324;12.344;2023-04-25T00:25:44;432.80;;;407.18;;
2824;SDS011;1420;51.324;12.344;2023-04-25T00:28:11;357.35;;;337.33;;
2824;SDS011;1420;51.324;12.344;2023-04-25T00:30:38;382.63;;;361.30;;
2824;SDS011;1420;51.324;12.344;2023-04-25T00:33:05;447.85;;;422.17;;
2824;SDS011;1420;51.324;12.344;2023-04-25T00:35:33;527.07;;;496.20;;
2824;SDS011;1420;51.324;12.344;2023-04-25T00:38:01;470.92;;;443.70;;
2824;SDS011;1420;51.324;12.344;2023-04-25T00:40:28;489.93;;;463.37;;
2824;SDS011;1420;51.324;12.344;2023-04-25T00:42:55;480.65;;;454.25;;
2824;SDS011;1420;51.324;12.344;2023-04-25T00:45:23;515.18;;;484.93;;
2824;SDS011;1420;51.324;12.344;2023-04-25T00:47:50;470.12;;;441.28;;
2824;SDS011;1420;51.324;12.344;2023-04-25T00:50:17;465.10;;;438.67;;
2824;SDS011;1420;51.324;12.344;2023-04-25T00:52:44;554.47;;;520.77;;
2824;SDS011;1420;51.324;12.344;2023-04-25T00:55:12;586.48;;;550.02;;
2824;SDS011;1420;51.324;12.344;2023-04-25T00:57:39;558.08;;;525.22;;
2824;SDS011;1420;51.324;12.344;2023-04-25T01:00:06;571.50;;;536.45;;
2824;SDS011;1420;51.324;12.344;2023-04-25T01:02:35;501.73;;;473.47;;
2824;SDS011;1420;51.324;12.344;2023-04-25T01:05:02;583.78;;;548.95;;
2824;SDS011;1420;51.324;12.344;2023-04-25T01:07:29;648.30;;;609.80;;
2824;SDS011;1420;51.324;12.344;2023-04-25T01:09:56;767.07;;;702.48;;
2824;SDS011;1420;51.324;12.344;2023-04-25T01:12:23;739.22;;;690.22;;
2824;SDS011;1420;51.324;12.344;2023-04-25T01:14:51;592.32;;;554.98;;
2824;SDS011;1420;51.324;12.344;2023-04-25T01:17:18;632.10;;;592.87;;
2824;SDS011;1420;51.324;12.344;2023-04-25T01:19:45;654.48;;;613.93;;
2824;SDS011;1420;51.324;12.344;2023-04-25T01:22:12;511.68;;;478.72;;
2824;SDS011;1420;51.324;12.344;2023-04-25T01:24:40;593.75;;;556.92;;
2824;SDS011;1420;51.324;12.344;2023-04-25T01:27:07;596.20;;;558.80;;
2824;SDS011;1420;51.324;12.344;2023-04-25T01:29:35;705.03;;;659.22;;
2824;SDS011;1420;51.324;12.344;2023-04-25T01:32:02;720.80;;;673.22;;
2824;SDS011;1420;51.324;12.344;2023-04-25T01:34:29;646.73;;;605.67;;
2824;SDS011;1420;51.324;12.344;2023-04-25T01:36:57;670.43;;;630.13;;
2824;SDS011;1420;51.324;12.344;2023-04-25T01:39:25;650.02;;;610.83;;
2824;SDS011;1420;51.324;12.344;2023-04-25T01:41:53;608.50;;;568.88;;
2824;SDS011;1420;51.324;12.344;2023-04-25T01:44:21;678.48;;;638.67;;
2824;SDS011;1420;51.324;12.344;2023-04-25T01:46:48;697.17;;;655.58;;
2824;SDS011;1420;51.324;12.344;2023-04-25T01:49:15;735.60;;;690.08;;
2824;SDS011;1420;51.324;12.344;2023-04-25T01:51:42;623.42;;;588.42;;
2824;SDS011;1420;51.324;12.344;2023-04-25T01:54:10;689.02;;;648.30;;
2824;SDS011;1420;51.324;12.344;2023-04-25T01:56:38;728.83;;;687.42;;
2824;SDS011;1420;51.324;12.344;2023-04-25T01:59:05;768.83;;;723.42;;
2824;SDS011;1420;51.324;12.344;2023-04-25T02:01:32;680.03;;;641.17;;
2824;SDS011;1420;51.324;12.344;2023-04-25T02:03:59;762.50;;;716.22;;
2824;SDS011;1420;51.324;12.344;2023-04-25T02:06:26;661.62;;;622.40;;
2824;SDS011;1420;51.324;12.344;2023-04-25T02:08:54;749.17;;;704.37;;
2824;SDS011;1420;51.324;12.344;2023-04-25T02:11:21;660.27;;;622.90;;
2824;SDS011;1420;51.324;12.344;2023-04-25T02:13:48;686.28;;;647.12;;
2824;SDS011;1420;51.324;12.344;2023-04-25T02:16:15;707.05;;;662.58;;
2824;SDS011;1420;51.324;12.344;2023-04-25T02:18:43;733.73;;;690.32;;
2824;SDS011;1420;51.324;12.344;2023-04-25T02:21:10;703.23;;;662.10;;
2824;SDS011;1420;51.324;12.344;2023-04-25T02:23:39;968.70;;;884.08;;
2824;SDS011;1420;51.324;12.344;2023-04-25T02:26:06;716.00;;;674.28;;
2824;SDS011;1420;51.324;12.344;2023-04-25T02:28:34;622.88;;;586.37;;
2824;SDS011;1420;51.324;12.344;2023-04-25T02:31:01;743.53;;;694.95;;
2824;SDS011;1420;51.324;12.344;2023-04-25T02:33:29;653.72;;;612.70;;
2824;SDS011;1420;51.324;12.344;2023-04-25T02:35:56;647.82;;;608.85;;
2824;SDS011;1420;51.324;12.344;2023-04-25T02:38:24;717.57;;;673.30;;
2824;SDS011;1420;51.324;12.344;2023-04-25T02:40:52;604.23;;;563.33;;
2824;SDS011;1420;51.324;12.344;2023-04-25T02:43:20;747.80;;;702.73;;
2824;SDS011;1420;51.324;12.344;2023-04-25T02:45:48;701.28;;;656.80;;
2824;SDS011;1420;51.324;12.344;2023-04-25T02:48:16;734.07;;;688.85;;
2824;SDS011;1420;51.324;12.344;2023-04-25T02:50:43;731.43;;;686.85;;
2824;SDS011;1420;51.324;12.344;2023-04-25T02:53:11;719.18;;;671.28;;
2824;SDS011;1420;51.324;12.344;2023-04-25T02:55:39;638.97;;;598.13;;
2824;SDS011;1420;51.324;12.344;2023-04-25T02:58:06;640.38;;;601.02;;
2824;SDS011;1420;51.324;12.344;2023-04-25T03:00:34;627.10;;;589.75;;
2824;SDS011;1420;51.324;12.344;2023-04-25T03:03:01;633.22;;;594.73;;
2824;SDS011;1420;51.324;12.344;2023-04-25T03:05:29;753.42;;;708.53;;
2824;SDS011;1420;51.324;12.344;2023-04-25T03:07:56;709.85;;;665.78;;
2824;SDS011;1420;51.324;12.344;2023-04-25T03:10:23;731.37;;;685.08;;
2824;SDS011;1420;51.324;12.344;2023-04-25T03:12:51;767.02;;;717.87;;
2824;SDS011;1420;51.324;12.344;2023-04-25T03:15:19;702.60;;;657.98;;
2824;SDS011;1420;51.324;12.344;2023-04-25T03:17:46;714.37;;;670.33;;
2824;SDS011;1420;51.324;12.344;2023-04-25T03:20:13;683.63;;;643.07;;
2824;SDS011;1420;51.324;12.344;2023-04-25T03:22:41;708.25;;;665.77;;
2824;SDS011;1420;51.324;12.344;2023-04-25T03:25:09;670.65;;;631.48;;
2824;SDS011;1420;51.324;12.344;2023-04-25T03:27:37;737.07;;;689.25;;
2824;SDS011;1420;51.324;12.344;2023-04-25T03:30:04;705.38;;;664.17;;
2824;SDS011;1420;51.324;12.344;2023-04-25T03:32:33;762.58;;;716.25;;
2824;SDS011;1420;51.324;12.344;2023-04-25T03:35:00;727.72;;;686.02;;
2824;SDS011;1420;51.324;12.344;2023-04-25T03:37:28;697.37;;;653.85;;
2824;SDS011;1420;51.324;12.344;2023-04-25T03:39:55;654.67;;;613.62;;
2824;SDS011;1420;51.324;12.344;2023-04-25T03:42:23;713.35;;;670.70;;
2824;SDS011;1420;51.324;12.344;2023-04-25T03:44:51;730.92;;;690.30;;
2824;SDS011;1420;51.324;12.344;2023-04-25T03:47:17;741.18;;;696.78;;
2824;SDS011;1420;51.324;12.344;2023-04-25T03:49:44;688.18;;;644.87;;
2824;SDS011;1420;51.324;12.344;2023-04-25T03:52:12;679.60;;;641.72;;
2824;SDS011;1420;51.324;12.344;2023-04-25T03:54:40;756.43;;;710.53;;
2824;SDS011;1420;51.324;12.344;2023-04-25T03:57:07;784.10;;;736.10;;
2824;SDS011;1420;51.324;12.344;2023-04-25T03:59:35;761.28;;;715.42;;
2824;SDS011;1420;51.324;12.344;2023-04-25T04:02:03;689.37;;;648.90;;
2824;SDS011;1420;51.324;12.344;2023-04-25T04:04:30;751.70;;;706.98;;
2824;SDS011;1420;51.324;12.344;2023-04-25T04:06:57;801.20;;;753.75;;
2824;SDS011;1420;51.324;12.344;2023-04-25T04:09:24;727.32;;;684.35;;
2824;SDS011;1420;51.324;12.344;2023-04-25T04:11:52;649.45;;;611.85;;
2824;SDS011;1420;51.324;12.344;2023-04-25T04:14:19;703.40;;;664.03;;
2824;SDS011;1420;51.324;12.344;2023-04-25T04:16:46;714.38;;;672.88;;
2824;SDS011;1420;51.324;12.344;2023-04-25T04:19:13;748.42;;;703.95;;
2824;SDS011;1420;51.324;12.344;2023-04-25T04:21:40;726.97;;;682.97;;
2824;SDS011;1420;51.324;12.344;2023-04-25T04:24:08;796.57;;;748.90;;
2824;SDS011;1420;51.324;12.344;2023-04-25T04:26:35;732.77;;;688.28;;
2824;SDS011;1420;51.324;12.344;2023-04-25T04:29:02;756.62;;;708.13;;
2824;SDS011;1420;51.324;12.344;2023-04-25T04:31:29;659.58;;;623.42;;
2824;SDS011;1420;51.324;12.344;2023-04-25T04:33:57;709.80;;;668.63;;
2824;SDS011;1420;51.324;12.344;2023-04-25T04:36:25;686.52;;;647.83;;
2824;SDS011;1420;51.324;12.344;2023-04-25T04:38:52;704.22;;;659.47;;
2824;SDS011;1420;51.324;12.344;2023-04-25T04:41:20;768.32;;;718.45;;
2824;SDS011;1420;51.324;12.344;2023-04-25T04:43:47;737.53;;;693.87;;
2824;SDS011;1420;51.324;12.344;2023-04-25T04:46:14;672.57;;;634.32;;
2824;SDS011;1420;51.324;12.344;2023-04-25T04:48:41;750.82;;;700.67;;
2824;SDS011;1420;51.324;12.344;2023-04-25T04:51:09;742.97;;;700.35;;
2824;SDS011;1420;51.324;12.344;2023-04-25T04:53:36;683.03;;;644.02;;
2824;SDS011;1420;51.324;12.344;2023-04-25T04:56:03;657.87;;;622.68;;
2824;SDS011;1420;51.324;12.344;2023-04-25T04:58:31;663.17;;;624.78;;
2824;SDS011;1420;51.324;12.344;2023-04-25T05:00:59;668.10;;;630.17;;
2824;SDS011;1420;51.324;12.344;2023-04-25T05:03:26;623.35;;;589.67;;
2824;SDS011;1420;51.324;12.344;2023-04-25T05:05:53;603.32;;;570.43;;
2824;SDS011;1420;51.324;12.344;2023-04-25T05:08:20;607.48;;;575.40;;
2824;SDS011;1420;51.324;12.344;2023-04-25T05:10:48;668.85;;;632.65;;
2824;SDS011;1420;51.324;12.344;2023-04-25T05:13:16;589.92;;;558.85;;
2824;SDS011;1420;51.324;12.344;2023-04-25T05:15:43;599.55;;;567.10;;
2824;SDS011;1420;51.324;12.344;2023-04-25T05:18:10;561.43;;;532.17;;
2824;SDS011;1420;51.324;12.344;2023-04-25T05:20:37;554.90;;;526.90;;
2824;SDS011;1420;51.324;12.344;2023-04-25T05:23:05;501.57;;;475.25;;
2824;SDS011;1420;51.324;12.344;2023-04-25T05:25:32;488.47;;;463.50;;
2824;SDS011;1420;51.324;12.344;2023-04-25T05:28:00;436.25;;;413.93;;
2824;SDS011;1420;51.324;12.344;2023-04-25T05:30:27;482.52;;;454.95;;
2824;SDS011;1420;51.324;12.344;2023-04-25T05:32:54;458.68;;;434.48;;
2824;SDS011;1420;51.324;12.344;2023-04-25T05:35:23;460.13;;;436.68;;
2824;SDS011;1420;51.324;12.344;2023-04-25T05:37:52;511.58;;;484.92;;
2824;SDS011;1420;51.324;12.344;2023-04-25T05:40:20;466.80;;;443.20;;
2824;SDS011;1420;51.324;12.344;2023-04-25T05:42:48;439.58;;;416.83;;
2824;SDS011;1420;51.324;12.344;2023-04-25T05:45:17;303.92;;;287.87;;
2824;SDS011;1420;51.324;12.344;2023-04-25T05:47:50;319.98;;;303.84;;
2824;SDS011;1420;51.324;12.344;2023-04-25T05:50:17;322.08;;;305.10;;
2824;SDS011;1420;51.324;12.344;2023-04-25T05:52:45;416.74;;;395.98;;
2824;SDS011;1420;51.324;12.344;2023-04-25T05:55:12;463.38;;;439.26;;
2824;SDS011;1420;51.324;12.344;2023-04-25T05:57:39;516.00;;;489.80;;
2824;SDS011;1420;51.324;12.344;2023-04-25T06:00:07;556.54;;;528.30;;
2824;SDS011;1420;51.324;12.344;2023-04-25T06:02:34;580.50;;;549.26;;
2824;SDS011;1420;51.324;12.344;2023-04-25T06:05:01;691.36;;;652.40;;
2824;SDS011;1420;51.324;12.344;2023-04-25T06:07:30;850.92;;;794.90;;
2824;SDS011;1420;51.324;12.344;2023-04-25T06:09:58;766.08;;;719.88;;
2824;SDS011;1420;51.324;12.344;2023-04-25T06:12:25;885.82;;;828.48;;
2824;SDS011;1420;51.324;12.344;2023-04-25T06:14:53;926.80;;;858.98;;
2824;SDS011;1420;51.324;12.344;2023-04-25T06:17:20;973.68;;;905.04;;
2824;SDS011;1420;51.324;12.344;2023-04-25T06:19:47;748.54;;;706.68;;
2824;SDS011;1420;51.324;12.344;2023-04-25T06:22:15;717.72;;;678.20;;
2824;SDS011;1420;51.324;12.344;2023-04-25T06:24:43;663.68;;;627.80;;
2824;SDS011;1420;51.324;12.344;2023-04-25T06:27:11;679.50;;;641.72;;
2824;SDS011;1420;51.324;12.344;2023-04-25T06:29:38;739.04;;;697.28;;
2824;SDS011;1420;51.324;12.344;2023-04-25T06:32:05;804.20;;;757.80;;
2824;SDS011;1420;51.324;12.344;2023-04-25T06:34:32;796.74;;;750.38;;
2824;SDS011;1420;51.324;12.344;2023-04-25T06:36:59;763.82;;;718.80;;
2824;SDS011;1420;51.324;12.344;2023-04-25T06:39:27;808.06;;;753.14;;
2824;SDS011;1420;51.324;12.344;2023-04-25T06:41:55;738.50;;;695.30;;
2824;SDS011;1420;51.324;12.344;2023-04-25T06:44:23;609.72;;;576.84;;
2824;SDS011;1420;51.324;12.344;2023-04-25T06:46:51;568.74;;;536.60;;
2824;SDS011;1420;51.324;12.344;2023-04-25T06:49:19;562.84;;;532.84;;
2824;SDS011;1420;51.324;12.344;2023-04-25T06:51:46;702.24;;;660.56;;
2824;SDS011;1420;51.324;12.344;2023-04-25T06:54:13;637.82;;;603.58;;
2824;SDS011;1420;51.324;12.344;2023-04-25T06:56:41;647.42;;;611.50;;
2824;SDS011;1420;51.324;12.344;2023-04-25T06:59:09;515.32;;;488.16;;
2824;SDS011;1420;51.324;12.344;2023-04-25T07:01:36;809.14;;;757.18;;
2824;SDS011;1420;51.324;12.344;2023-04-25T07:04:04;818.40;;;764.48;;
2824;SDS011;1420;51.324;12.344;2023-04-25T07:06:31;547.76;;;518.62;;
2824;SDS011;1420;51.324;12.344;2023-04-25T07:08:58;465.24;;;441.82;;
2824;SDS011;1420;51.324;12.344;2023-04-25T07:11:25;624.82;;;590.32;;
2824;SDS011;1420;51.324;12.344;2023-04-25T07:13:53;481.30;;;456.56;;
2824;SDS011;1420;51.324;12.344;2023-04-25T07:16:21;500.78;;;474.44;;
2824;SDS011;1420;51.324;12.344;2023-04-25T07:18:48;925.22;;;857.82;;
2824;SDS011;1420;51.324;12.344;2023-04-25T07:21:16;642.62;;;607.18;;
2824;SDS011;1420;51.324;12.344;2023-04-25T07:23:43;458.37;;;433.90;;
2824;SDS011;1420;51.324;12.344;2023-04-25T07:26:10;485.76;;;460.22;;
2824;SDS011;1420;51.324;12.344;2023-04-25T07:28:38;604.18;;;571.18;;
2824;SDS011;1420;51.324;12.344;2023-04-25T07:31:06;486.60;;;460.60;;
2824;SDS011;1420;51.324;12.344;2023-04-25T07:33:33;425.26;;;402.80;;
2824;SDS011;1420;51.324;12.344;2023-04-25T07:36:00;354.48;;;335.84;;
2824;SDS011;1420;51.324;12.344;2023-04-25T07:38:28;491.98;;;464.08;;
2824;SDS011;1420;51.324;12.344;2023-04-25T07:40:55;566.50;;;535.06;;
2824;SDS011;1420;51.324;12.344;2023-04-25T07:43:23;380.82;;;361.02;;
2824;SDS011;1420;51.324;12.344;2023-04-25T07:45:50;650.58;;;614.08;;
2824;SDS011;1420;51.324;12.344;2023-04-25T07:48:17;637.10;;;598.12;;
2824;SDS011;1420;51.324;12.344;2023-04-25T07:50:45;709.03;;;663.57;;
2824;SDS011;1420;51.324;12.344;2023-04-25T07:53:13;553.72;;;522.47;;
2824;SDS011;1420;51.324;12.344;2023-04-25T07:55:41;501.62;;;473.60;;
2824;SDS011;1420;51.324;12.344;2023-04-25T07:58:08;406.65;;;385.82;;
2824;SDS011;1420;51.324;12.344;2023-04-25T08:00:35;783.05;;;730.23;;
2824;SDS011;1420;51.324;12.344;2023-04-25T08:03:02;552.70;;;519.68;;
2824;SDS011;1420;51.324;12.344;2023-04-25T08:05:29;659.60;;;618.32;;
2824;SDS011;1420;51.324;12.344;2023-04-25T08:07:57;557.02;;;525.53;;
2824;SDS011;1420;51.324;12.344;2023-04-25T08:10:24;447.38;;;424.55;;
2824;SDS011;1420;51.324;12.344;2023-04-25T08:12:51;388.55;;;367.95;;
2824;SDS011;1420;51.324;12.344;2023-04-25T08:15:18;434.27;;;410.88;;
2824;SDS011;1420;51.324;12.344;2023-04-25T08:17:46;581.78;;;549.85;;
2824;SDS011;1420;51.324;12.344;2023-04-25T08:20:13;538.70;;;510.53;;
2824;SDS011;1420;51.324;12.344;2023-04-25T08:22:40;915.40;;;852.70;;
2824;SDS011;1420;51.324;12.344;2023-04-25T08:25:08;698.53;;;657.90;;
2824;SDS011;1420;51.324;12.344;2023-04-25T08:27:36;679.52;;;641.27;;
2824;SDS011;1420;51.324;12.344;2023-04-25T08:30:03;682.68;;;645.42;;
2824;SDS011;1420;51.324;12.344;2023-04-25T08:32:31;624.07;;;591.50;;
2824;SDS011;1420;51.324;12.344;2023-04-25T08:34:58;654.78;;;619.90;;
2824;SDS011;1420;51.324;12.344;2023-04-25T08:37:25;909.74;;;837.08;;
2824;SDS011;1420;51.324;12.344;2023-04-25T08:39:53;793.32;;;743.24;;
2824;SDS011;1420;51.324;12.344;2023-04-25T08:42:20;965.08;;;882.67;;
2824;SDS011;1420;51.324;12.344;2023-04-25T08:44:47;660.36;;;624.56;;
2824;SDS011;1420;51.324;12.344;2023-04-25T08:47:14;742.72;;;700.70;;
2824;SDS011;1420;51.324;12.344;2023-04-25T08:49:44;735.82;;;694.22;;
2824;SDS011;1420;51.324;12.344;2023-04-25T08:52:09;754.68;;;711.36;;
2824;SDS011;1420;51.324;12.344;2023-04-25T08:54:36;823.44;;;770.76;;
2824;SDS011;1420;51.324;12.344;2023-04-25T08:57:03;733.42;;;692.27;;
2824;SDS011;1420;51.324;12.344;2023-04-25T08:59:31;716.70;;;677.48;;
2824;SDS011;1420;51.324;12.344;2023-04-25T09:01:58;725.13;;;683.53;;
2824;SDS011;1420;51.324;12.344;2023-04-25T09:04:25;828.12;;;775.96;;
2824;SDS011;1420;51.324;12.344;2023-04-25T09:06:53;792.50;;;745.60;;
2824;SDS011;1420;51.324;12.344;2023-04-25T09:09:20;719.38;;;676.68;;
2824;SDS011;1420;51.324;12.344;2023-04-25T09:11:47;913.36;;;853.20;;
2824;SDS011;1420;51.324;12.344;2023-04-25T09:14:19;712.38;;;672.42;;
2824;SDS011;1420;51.324;12.344;2023-04-25T09:19:31;821.10;;;771.48;;
2824;SDS011;1420;51.324;12.344;2023-04-25T09:21:59;808.80;;;761.58;;
2824;SDS011;1420;51.324;12.344;2023-04-25T09:24:42;991.90;;;919.24;;
2824;SDS011;1420;51.324;12.344;2023-04-25T09:27:11;910.74;;;853.84;;
2824;SDS011;1420;51.324;12.344;2023-04-25T09:29:38;822.04;;;774.24;;
2824;SDS011;1420;51.324;12.344;2023-04-25T09:34:39;920.72;;;857.86;;
2824;SDS011;1420;51.324;12.344;2023-04-25T09:37:06;886.80;;;830.00;;
2824;SDS011;1420;51.324;12.344;2023-04-25T09:39:33;1201.34;;;999.90;;
2824;SDS011;1420;51.324;12.344;2023-04-25T09:42:00;923.94;;;863.62;;
2824;SDS011;1420;51.324;12.344;2023-04-25T09:44:28;945.84;;;880.96;;
2824;SDS011;1420;51.324;12.344;2023-04-25T09:46:56;759.50;;;715.57;;
2824;SDS011;1420;51.324;12.344;2023-04-25T09:49:23;734.68;;;692.12;;
2824;SDS011;1420;51.324;12.344;2023-04-25T09:51:55;632.10;;;597.66;;
2824;SDS011;1420;51.324;12.344;2023-04-25T09:54:23;698.67;;;659.82;;
2824;SDS011;1420;51.324;12.344;2023-04-25T09:56:52;650.77;;;616.13;;
2824;SDS011;1420;51.324;12.344;2023-04-25T09:59:20;862.88;;;803.58;;
2824;SDS011;1420;51.324;12.344;2023-04-25T10:01:46;743.86;;;700.56;;
2824;SDS011;1420;51.324;12.344;2023-04-25T10:04:15;836.94;;;785.02;;
2824;SDS011;1420;51.324;12.344;2023-04-25T10:06:42;775.82;;;730.92;;
2824;SDS011;1420;51.324;12.344;2023-04-25T10:09:09;880.52;;;825.36;;
2824;SDS011;1420;51.324;12.344;2023-04-25T10:11:36;913.90;;;851.75;;
2824;SDS011;1420;51.324;12.344;2023-04-25T10:14:04;825.92;;;773.56;;
2824;SDS011;1420;51.324;12.344;2023-04-25T10:16:32;916.92;;;855.02;;
2824;SDS011;1420;51.324;12.344;2023-04-25T10:19:00;837.54;;;786.66;;
2824;SDS011;1420;51.324;12.344;2023-04-25T10:21:27;761.12;;;717.70;;
2824;SDS011;1420;51.324;12.344;2023-04-25T10:23:54;762.64;;;716.68;;
2824;SDS011;1420;51.324;12.344;2023-04-25T10:26:21;714.06;;;674.70;;
2824;SDS011;1420;51.324;12.344;2023-04-25T10:28:55;665.48;;;628.38;;
2824;SDS011;1420;51.324;12.344;2023-04-25T10:31:22;950.28;;;885.74;;
2824;SDS011;1420;51.324;12.344;2023-04-25T10:33:50;842.48;;;787.60;;
2824;SDS011;1420;51.324;12.344;2023-04-25T10:36:18;843.38;;;793.82;;
2824;SDS011;1420;51.324;12.344;2023-04-25T10:38:45;825.84;;;776.54;;
2824;SDS011;1420;51.324;12.344;2023-04-25T10:41:13;792.06;;;744.64;;
2824;SDS011;1420;51.324;12.344;2023-04-25T10:43:41;754.32;;;710.60;;
2824;SDS011;1420;51.324;12.344;2023-04-25T10:46:13;900.00;;;842.24;;
2824;SDS011;1420;51.324;12.344;2023-04-25T10:48:45;884.74;;;828.66;;
2824;SDS011;1420;51.324;12.344;2023-04-25T10:51:16;770.40;;;725.46;;
2824;SDS011;1420;51.324;12.344;2023-04-25T10:54:00;791.34;;;745.64;;
2824;SDS011;1420;51.324;12.344;2023-04-25T10:56:29;795.50;;;748.60;;
2824;SDS011;1420;51.324;12.344;2023-04-25T10:59:02;857.26;;;803.38;;
2824;SDS011;1420;51.324;12.344;2023-04-25T11:01:28;726.56;;;685.48;;
2824;SDS011;1420;51.324;12.344;2023-04-25T11:03:57;731.84;;;691.48;;
2824;SDS011;1420;51.324;12.344;2023-04-25T11:06:35;704.52;;;664.74;;
2824;SDS011;1420;51.324;12.344;2023-04-25T11:09:10;719.23;;;677.92;;
2824;SDS011;1420;51.324;12.344;2023-04-25T11:11:37;773.22;;;727.56;;
2824;SDS011;1420;51.324;12.344;2023-04-25T11:14:05;759.96;;;714.78;;
2824;SDS011;1420;51.324;12.344;2023-04-25T11:16:33;753.04;;;709.62;;
2824;SDS011;1420;51.324;12.344;2023-04-25T11:19:00;690.04;;;651.76;;
2824;SDS011;1420;51.324;12.344;2023-04-25T11:21:28;705.92;;;667.42;;
2824;SDS011;1420;51.324;12.344;2023-04-25T11:23:56;739.72;;;697.38;;
2824;SDS011;1420;51.324;12.344;2023-04-25T11:26:24;727.78;;;688.46;;
2824;SDS011;1420;51.324;12.344;2023-04-25T11:28:50;746.24;;;701.96;;
2824;SDS011;1420;51.324;12.344;2023-04-25T11:31:20;852.20;;;793.16;;
2824;SDS011;1420;51.324;12.344;2023-04-25T11:33:47;792.38;;;745.48;;
2824;SDS011;1420;51.324;12.344;2023-04-25T11:36:14;819.92;;;770.66;;
2824;SDS011;1420;51.324;12.344;2023-04-25T11:38:42;741.88;;;699.02;;
2824;SDS011;1420;51.324;12.344;2023-04-25T11:41:09;831.60;;;774.87;;
2824;SDS011;1420;51.324;12.344;2023-04-25T11:43:36;802.72;;;755.38;;
2824;SDS011;1420;51.324;12.344;2023-04-25T11:46:06;837.42;;;785.57;;
2824;SDS011;1420;51.324;12.344;2023-04-25T11:48:38;870.45;;;815.20;;
2824;SDS011;1420;51.324;12.344;2023-04-25T11:51:05;923.54;;;863.62;;
2824;SDS011;1420;51.324;12.344;2023-04-25T11:53:32;937.62;;;877.68;;
2824;SDS011;1420;51.324;12.344;2023-04-25T11:55:59;901.90;;;845.58;;
2824;SDS011;1420;51.324;12.344;2023-04-25T11:58:26;921.32;;;860.72;;
2824;SDS011;1420;51.324;12.344;2023-04-25T12:00:53;885.00;;;827.66;;
2824;SDS011;1420;51.324;12.344;2023-04-25T12:03:21;1041.56;;;963.98;;
2824;SDS011;1420;51.324;12.344;2023-04-25T12:05:49;986.22;;;916.00;;
2824;SDS011;1420;51.324;12.344;2023-04-25T12:08:16;1017.62;;;944.86;;
2824;SDS011;1420;51.324;12.344;2023-04-25T12:10:44;975.32;;;910.38;;
2824;SDS011;1420;51.324;12.344;2023-04-25T12:15:44;988.00;;;915.16;;
2824;SDS011;1420;51.324;12.344;2023-04-25T12:18:12;901.70;;;844.52;;
2824;SDS011;1420;51.324;12.344;2023-04-25T12:20:41;985.86;;;916.10;;
2824;SDS011;1420;51.324;12.344;2023-04-25T12:23:07;888.40;;;833.16;;
2824;SDS011;1420;51.324;12.344;2023-04-25T12:25:43;935.18;;;873.92;;
2824;SDS011;1420;51.324;12.344;2023-04-25T12:28:18;933.50;;;873.22;;
2824;SDS011;1420;51.324;12.344;2023-04-25T12:33:18;938.48;;;877.46;;
2824;SDS011;1420;51.324;12.344;2023-04-25T12:35:45;921.06;;;863.10;;
2824;SDS011;1420;51.324;12.344;2023-04-25T12:38:20;944.62;;;882.66;;
2824;SDS011;1420;51.324;12.344;2023-04-25T12:40:48;873.38;;;821.52;;
2824;SDS011;1420;51.324;12.344;2023-04-25T12:43:15;900.62;;;841.82;;
2824;SDS011;1420;51.324;12.344;2023-04-25T12:45:43;970.30;;;903.84;;
2824;SDS011;1420;51.324;12.344;2023-04-25T12:48:11;928.32;;;870.32;;
2824;SDS011;1420;51.324;12.344;2023-04-25T12:50:38;900.44;;;843.54;;
2824;SDS011;1420;51.324;12.344;2023-04-25T12:53:05;973.26;;;908.88;;
2824;SDS011;1420;51.324;12.344;2023-04-25T12:55:32;905.10;;;849.22;;
2824;SDS011;1420;51.324;12.344;2023-04-25T12:58:00;965.90;;;899.08;;
2824;SDS011;1420;51.324;12.344;2023-04-25T13:00:27;891.90;;;836.10;;
2824;SDS011;1420;51.324;12.344;2023-04-25T13:02:54;818.82;;;761.95;;
2824;SDS011;1420;51.324;12.344;2023-04-25T13:05:22;803.68;;;753.02;;
2824;SDS011;1420;51.324;12.344;2023-04-25T13:07:50;889.48;;;827.77;;
2824;SDS011;1420;51.324;12.344;2023-04-25T13:10:17;787.12;;;733.62;;
2824;SDS011;1420;51.324;12.344;2023-04-25T13:12:45;1413.57;;;882.15;;
2824;SDS011;1420;51.324;12.344;2023-04-25T13:15:12;900.88;;;842.35;;
2824;SDS011;1420;51.324;12.344;2023-04-25T13:17:40;1098.50;;;999.90;;
2824;SDS011;1420;51.324;12.344;2023-04-25T13:20:07;794.88;;;746.60;;
2824;SDS011;1420;51.324;12.344;2023-04-25T13:22:36;821.90;;;765.16;;
2824;SDS011;1420;51.324;12.344;2023-04-25T13:25:03;799.27;;;749.03;;
2824;SDS011;1420;51.324;12.344;2023-04-25T13:27:31;805.86;;;753.58;;
2824;SDS011;1420;51.324;12.344;2023-04-25T13:29:58;749.20;;;701.42;;
2824;SDS011;1420;51.324;12.344;2023-04-25T13:32:25;1338.13;;;814.13;;
2824;SDS011;1420;51.324;12.344;2023-04-25T13:34:53;797.02;;;744.68;;
2824;SDS011;1420;51.324;12.344;2023-04-25T13:37:20;1448.20;;;830.58;;
2824;SDS011;1420;51.324;12.344;2023-04-25T13:39:48;1999.90;;;999.90;;
2824;SDS011;1420;51.324;12.344;2023-04-25T13:42:15;632.03;;;589.15;;
2824;SDS011;1420;51.324;12.344;2023-04-25T13:44:42;758.32;;;706.32;;
2824;SDS011;1420;51.324;12.344;2023-04-25T13:47:10;906.76;;;847.06;;
2824;SDS011;1420;51.324;12.344;2023-04-25T13:49:37;953.48;;;888.20;;
2824;SDS011;1420;51.324;12.344;2023-04-25T13:52:05;907.84;;;849.28;;
2824;SDS011;1420;51.324;12.344;2023-04-25T13:54:32;1025.94;;;943.46;;
2824;SDS011;1420;51.324;12.344;2023-04-25T13:57:00;1027.08;;;947.76;;
2824;SDS011;1420;51.324;12.344;2023-04-25T13:59:27;962.74;;;898.26;;
2824;SDS011;1420;51.324;12.344;2023-04-25T14:01:55;959.24;;;894.26;;
2824;SDS011;1420;51.324;12.344;2023-04-25T14:04:22;618.84;;;574.12;;
2824;SDS011;1420;51.324;12.344;2023-04-25T14:06:50;905.96;;;847.00;;
2824;SDS011;1420;51.324;12.344;2023-04-25T14:09:17;1999.90;;;999.90;;
2824;SDS011;1420;51.324;12.344;2023-04-25T14:11:44;1999.90;;;999.90;;
2824;SDS011;1420;51.324;12.344;2023-04-25T14:14:11;1999.90;;;999.90;;
2824;SDS011;1420;51.324;12.344;2023-04-25T14:16:38;1999.90;;;999.90;;
2824;SDS011;1420;51.324;12.344;2023-04-25T14:19:06;1999.90;;;999.90;;
2824;SDS011;1420;51.324;12.344;2023-04-25T14:21:33;1999.90;;;999.90;;